sensor_id;sensor_type;location;lat;lon;timestamp;pressure;altitude;pressure_sealevel;temperature;humidity
51986;BME280;38002;53.296;6.600;2023-06-22T00:01:54;102202.16;;;17.32;78.38
51986;BME280;38002;53.296;6.600;2023-06-22T00:06:54;102199.94;;;17.28;78.47
51986;BME280;38002;53.296;6.600;2023-06-22T00:11:55;102197.53;;;17.24;78.36
51986;BME280;38002;53.296;6.600;2023-06-22T00:16:55;102204.94;;;17.16;78.47
51986;BME280;38002;53.296;6.600;2023-06-22T00:21:59;102210.09;;;17.11;78.46
51986;BME280;38002;53.296;6.600;2023-06-22T00:27:00;102215.38;;;17.04;79.03
51986;BME280;38002;53.296;6.600;2023-06-22T00:32:00;102215.22;;;16.98;78.53
51986;BME280;38002;53.296;6.600;2023-06-22T00:37:01;102230.19;;;16.95;78.71
51986;BME280;38002;53.296;6.600;2023-06-22T00:42:01;102216.94;;;16.83;78.92
51986;BME280;38002;53.296;6.600;2023-06-22T00:47:02;102228.09;;;16.81;79.16
51986;BME280;38002;53.296;6.600;2023-06-22T00:52:03;102229.63;;;16.75;79.12
51986;BME280;38002;53.296;6.600;2023-06-22T00:57:04;102231.00;;;16.71;79.33
51986;BME280;38002;53.296;6.600;2023-06-22T01:02:05;102229.09;;;16.64;79.53
51986;BME280;38002;53.296;6.600;2023-06-22T01:12:14;102245.91;;;16.61;79.63
51986;BME280;38002;53.296;6.600;2023-06-22T01:17:17;102233.38;;;16.58;79.78
51986;BME280;38002;53.296;6.600;2023-06-22T01:22:20;102223.72;;;16.54;79.64
51986;BME280;38002;53.296;6.600;2023-06-22T01:27:36;102226.09;;;16.49;79.85
51986;BME280;38002;53.296;6.600;2023-06-22T01:32:47;102220.44;;;16.43;80.04
51986;BME280;38002;53.296;6.600;2023-06-22T01:37:48;102210.97;;;16.37;80.30
51986;BME280;38002;53.296;6.600;2023-06-22T01:42:50;102210.09;;;16.37;80.11
51986;BME280;38002;53.296;6.600;2023-06-22T01:47:51;102208.38;;;16.35;80.56
51986;BME280;38002;53.296;6.600;2023-06-22T01:52:51;102202.06;;;16.35;80.56
51986;BME280;38002;53.296;6.600;2023-06-22T01:57:52;102204.09;;;16.33;80.56
51986;BME280;38002;53.296;6.600;2023-06-22T02:02:59;102199.63;;;16.32;80.56
51986;BME280;38002;53.296;6.600;2023-06-22T02:08:09;102189.63;;;16.23;80.86
51986;BME280;38002;53.296;6.600;2023-06-22T02:13:13;102205.59;;;16.27;80.63
51986;BME280;38002;53.296;6.600;2023-06-22T02:18:14;102197.72;;;16.24;80.80
51986;BME280;38002;53.296;6.600;2023-06-22T02:23:14;102196.19;;;16.22;80.67
51986;BME280;38002;53.296;6.600;2023-06-22T02:28:15;102204.56;;;16.20;80.98
51986;BME280;38002;53.296;6.600;2023-06-22T02:33:15;102188.25;;;16.19;81.37
51986;BME280;38002;53.296;6.600;2023-06-22T02:38:16;102184.50;;;16.20;81.26
51986;BME280;38002;53.296;6.600;2023-06-22T02:43:17;102184.13;;;16.15;81.20
51986;BME280;38002;53.296;6.600;2023-06-22T02:48:18;102190.81;;;16.12;81.49
51986;BME280;38002;53.296;6.600;2023-06-22T02:53:18;102165.50;;;15.93;81.65
51986;BME280;38002;53.296;6.600;2023-06-22T02:58:19;102197.97;;;16.05;81.71
51986;BME280;38002;53.296;6.600;2023-06-22T03:03:20;102205.38;;;16.05;81.73
51986;BME280;38002;53.296;6.600;2023-06-22T03:08:20;102207.41;;;16.03;81.72
51986;BME280;38002;53.296;6.600;2023-06-22T03:13:20;102197.06;;;15.97;81.67
51986;BME280;38002;53.296;6.600;2023-06-22T03:18:21;102216.13;;;15.98;82.03
51986;BME280;38002;53.296;6.600;2023-06-22T03:23:22;102204.78;;;15.93;81.96
51986;BME280;38002;53.296;6.600;2023-06-22T03:28:23;102204.09;;;15.91;82.07
51986;BME280;38002;53.296;6.600;2023-06-22T03:33:23;102195.16;;;15.89;81.98
51986;BME280;38002;53.296;6.600;2023-06-22T03:38:24;102201.66;;;15.88;82.49
51986;BME280;38002;53.296;6.600;2023-06-22T03:43:24;102204.41;;;15.88;82.40
51986;BME280;38002;53.296;6.600;2023-06-22T03:48:25;102202.38;;;15.90;82.52
51986;BME280;38002;53.296;6.600;2023-06-22T03:53:25;102196.88;;;15.90;82.64
51986;BME280;38002;53.296;6.600;2023-06-22T03:58:25;102192.25;;;15.91;82.53
51986;BME280;38002;53.296;6.600;2023-06-22T04:03:26;102177.16;;;15.86;82.74
51986;BME280;38002;53.296;6.600;2023-06-22T04:08:26;102186.59;;;15.92;82.91
51986;BME280;38002;53.296;6.600;2023-06-22T04:13:27;102192.09;;;15.92;83.46
51986;BME280;38002;53.296;6.600;2023-06-22T04:18:27;102191.06;;;15.93;83.27
51986;BME280;38002;53.296;6.600;2023-06-22T04:23:27;102194.53;;;15.95;83.16
51986;BME280;38002;53.296;6.600;2023-06-22T04:28:28;102199.00;;;15.96;83.38
51986;BME280;38002;53.296;6.600;2023-06-22T04:33:28;102206.53;;;16.02;83.70
51986;BME280;38002;53.296;6.600;2023-06-22T04:38:29;102203.47;;;16.05;83.67
51986;BME280;38002;53.296;6.600;2023-06-22T04:43:33;102202.66;;;16.13;83.62
51986;BME280;38002;53.296;6.600;2023-06-22T04:48:34;102186.19;;;16.13;84.00
51986;BME280;38002;53.296;6.600;2023-06-22T04:53:34;102192.56;;;16.21;84.18
51986;BME280;38002;53.296;6.600;2023-06-22T04:58:35;102183.50;;;16.29;84.28
51986;BME280;38002;53.296;6.600;2023-06-22T05:03:35;102173.75;;;16.34;84.34
51986;BME280;38002;53.296;6.600;2023-06-22T05:08:37;102170.13;;;16.42;84.75
51986;BME280;38002;53.296;6.600;2023-06-22T05:13:37;102186.97;;;16.47;84.92
51986;BME280;38002;53.296;6.600;2023-06-22T05:18:38;102192.63;;;16.54;84.83
51986;BME280;38002;53.296;6.600;2023-06-22T05:23:38;102183.78;;;16.60;85.35
51986;BME280;38002;53.296;6.600;2023-06-22T05:28:38;102177.25;;;16.69;85.29
51986;BME280;38002;53.296;6.600;2023-06-22T05:33:40;102185.31;;;16.78;85.75
51986;BME280;38002;53.296;6.600;2023-06-22T05:38:41;102197.72;;;16.91;85.39
51986;BME280;38002;53.296;6.600;2023-06-22T05:43:41;102194.63;;;17.02;85.75
51986;BME280;38002;53.296;6.600;2023-06-22T05:48:42;102192.38;;;17.13;85.79
51986;BME280;38002;53.296;6.600;2023-06-22T05:53:42;102191.84;;;17.26;86.19
51986;BME280;38002;53.296;6.600;2023-06-22T05:58:45;102178.94;;;17.35;86.08
51986;BME280;38002;53.296;6.600;2023-06-22T06:03:46;102192.69;;;17.51;86.42
51986;BME280;38002;53.296;6.600;2023-06-22T06:08:46;102194.72;;;17.65;86.21
51986;BME280;38002;53.296;6.600;2023-06-22T06:13:47;102178.72;;;17.77;86.57
51986;BME280;38002;53.296;6.600;2023-06-22T06:18:47;102186.38;;;17.97;86.56
51986;BME280;38002;53.296;6.600;2023-06-22T06:23:50;102187.00;;;18.16;86.55
51986;BME280;38002;53.296;6.600;2023-06-22T06:28:50;102186.22;;;18.30;86.80
51986;BME280;38002;53.296;6.600;2023-06-22T06:33:50;102189.19;;;18.51;87.01
51986;BME280;38002;53.296;6.600;2023-06-22T06:38:51;102188.06;;;18.68;86.49
51986;BME280;38002;53.296;6.600;2023-06-22T06:43:51;102191.78;;;18.83;86.42
51986;BME280;38002;53.296;6.600;2023-06-22T06:48:52;102197.44;;;19.04;86.23
51986;BME280;38002;53.296;6.600;2023-06-22T06:53:52;102184.38;;;19.21;86.29
51986;BME280;38002;53.296;6.600;2023-06-22T06:58:52;102194.38;;;19.45;86.09
51986;BME280;38002;53.296;6.600;2023-06-22T07:03:53;102190.56;;;19.61;85.44
51986;BME280;38002;53.296;6.600;2023-06-22T07:08:54;102182.03;;;19.70;84.80
51986;BME280;38002;53.296;6.600;2023-06-22T07:13:55;102190.28;;;19.85;84.70
51986;BME280;38002;53.296;6.600;2023-06-22T07:18:55;102195.34;;;19.96;84.49
51986;BME280;38002;53.296;6.600;2023-06-22T07:23:56;102186.84;;;20.12;83.83
51986;BME280;38002;53.296;6.600;2023-06-22T07:28:57;102185.31;;;20.24;82.54
51986;BME280;38002;53.296;6.600;2023-06-22T07:33:57;102185.97;;;20.41;81.81
51986;BME280;38002;53.296;6.600;2023-06-22T07:38:57;102176.13;;;20.53;81.25
51986;BME280;38002;53.296;6.600;2023-06-22T07:43:58;102193.50;;;20.68;79.72
51986;BME280;38002;53.296;6.600;2023-06-22T07:48:58;102175.44;;;20.87;79.49
51986;BME280;38002;53.296;6.600;2023-06-22T07:53:59;102162.00;;;21.05;79.01
51986;BME280;38002;53.296;6.600;2023-06-22T07:59:00;102159.59;;;21.23;78.49
51986;BME280;38002;53.296;6.600;2023-06-22T08:04:02;102156.31;;;21.41;76.95
51986;BME280;38002;53.296;6.600;2023-06-22T08:09:02;102145.19;;;21.62;76.75
51986;BME280;38002;53.296;6.600;2023-06-22T08:14:03;102144.03;;;21.85;76.39
51986;BME280;38002;53.296;6.600;2023-06-22T08:19:04;102148.72;;;21.84;74.59
51986;BME280;38002;53.296;6.600;2023-06-22T08:24:04;102151.09;;;21.87;74.45
51986;BME280;38002;53.296;6.600;2023-06-22T08:29:05;102156.31;;;22.03;74.41
51986;BME280;38002;53.296;6.600;2023-06-22T08:34:05;102151.31;;;22.33;73.12
51986;BME280;38002;53.296;6.600;2023-06-22T08:39:06;102146.94;;;22.65;73.00
51986;BME280;38002;53.296;6.600;2023-06-22T08:44:06;102142.94;;;22.94;72.00
51986;BME280;38002;53.296;6.600;2023-06-22T08:49:07;102138.66;;;23.18;71.28
51986;BME280;38002;53.296;6.600;2023-06-22T08:54:08;102145.69;;;23.40;70.67
51986;BME280;38002;53.296;6.600;2023-06-22T08:59:09;102143.97;;;23.65;69.70
51986;BME280;38002;53.296;6.600;2023-06-22T09:04:09;102130.66;;;23.93;69.21
51986;BME280;38002;53.296;6.600;2023-06-22T09:09:12;102123.72;;;24.22;68.62
51986;BME280;38002;53.296;6.600;2023-06-22T09:14:12;102119.25;;;24.53;68.10
51986;BME280;38002;53.296;6.600;2023-06-22T09:19:13;102115.50;;;24.72;67.44
51986;BME280;38002;53.296;6.600;2023-06-22T09:24:13;102111.53;;;24.93;66.93
51986;BME280;38002;53.296;6.600;2023-06-22T09:29:13;102131.91;;;25.11;66.38
51986;BME280;38002;53.296;6.600;2023-06-22T09:34:14;102128.22;;;25.17;64.94
51986;BME280;38002;53.296;6.600;2023-06-22T09:39:14;102113.84;;;25.20;65.35
51986;BME280;38002;53.296;6.600;2023-06-22T09:44:15;102114.91;;;25.44;64.72
51986;BME280;38002;53.296;6.600;2023-06-22T09:49:15;102108.22;;;25.70;64.75
51986;BME280;38002;53.296;6.600;2023-06-22T09:54:16;102094.88;;;25.72;63.82
51986;BME280;38002;53.296;6.600;2023-06-22T09:59:16;102103.25;;;25.90;63.75
51986;BME280;38002;53.296;6.600;2023-06-22T10:04:17;102096.75;;;26.14;63.20
51986;BME280;38002;53.296;6.600;2023-06-22T10:09:17;102093.75;;;26.28;62.83
51986;BME280;38002;53.296;6.600;2023-06-22T10:14:18;102095.03;;;26.32;62.12
51986;BME280;38002;53.296;6.600;2023-06-22T10:19:19;102079.22;;;26.26;62.18
51986;BME280;38002;53.296;6.600;2023-06-22T10:24:19;102086.56;;;26.50;54.77
51986;BME280;38002;53.296;6.600;2023-06-22T10:29:20;102085.50;;;26.51;60.89
51986;BME280;38002;53.296;6.600;2023-06-22T10:34:20;102081.59;;;26.40;54.70
51986;BME280;38002;53.296;6.600;2023-06-22T10:39:21;102061.97;;;26.58;61.51
51986;BME280;38002;53.296;6.600;2023-06-22T10:44:21;102065.59;;;26.89;52.67
51986;BME280;38002;53.296;6.600;2023-06-22T10:49:21;102062.06;;;26.93;59.68
51986;BME280;38002;53.296;6.600;2023-06-22T10:54:21;102062.44;;;26.85;52.10
51986;BME280;38002;53.296;6.600;2023-06-22T10:59:22;102070.41;;;26.82;58.83
51986;BME280;38002;53.296;6.600;2023-06-22T11:04:24;102071.97;;;26.78;59.55
51986;BME280;38002;53.296;6.600;2023-06-22T11:09:25;102059.97;;;26.77;60.00
51986;BME280;38002;53.296;6.600;2023-06-22T11:14:25;102048.25;;;26.98;55.82
51986;BME280;38002;53.296;6.600;2023-06-22T11:19:25;102053.09;;;27.26;58.84
51986;BME280;38002;53.296;6.600;2023-06-22T11:24:26;102059.53;;;27.27;52.58
51986;BME280;38002;53.296;6.600;2023-06-22T11:29:26;102051.75;;;27.29;58.88
51986;BME280;38002;53.296;6.600;2023-06-22T11:34:27;102056.97;;;27.37;58.24
51986;BME280;38002;53.296;6.600;2023-06-22T11:39:28;102046.75;;;27.42;58.33
51986;BME280;38002;53.296;6.600;2023-06-22T11:44:28;102053.56;;;27.46;57.55
51986;BME280;38002;53.296;6.600;2023-06-22T11:49:30;102051.53;;;27.30;57.25
51986;BME280;38002;53.296;6.600;2023-06-22T11:54:30;102051.16;;;27.27;57.59
51986;BME280;38002;53.296;6.600;2023-06-22T11:59:31;102045.59;;;27.27;57.00
51986;BME280;38002;53.296;6.600;2023-06-22T12:04:31;102038.53;;;27.24;56.56
51986;BME280;38002;53.296;6.600;2023-06-22T12:09:32;102031.97;;;27.07;56.39
51986;BME280;38002;53.296;6.600;2023-06-22T12:14:32;102030.50;;;26.93;56.83
51986;BME280;38002;53.296;6.600;2023-06-22T12:19:32;102024.09;;;27.04;56.52
51986;BME280;38002;53.296;6.600;2023-06-22T12:24:33;102019.22;;;27.11;56.11
51986;BME280;38002;53.296;6.600;2023-06-22T12:29:33;102014.72;;;26.98;55.97
51986;BME280;38002;53.296;6.600;2023-06-22T12:34:34;102007.16;;;26.76;55.83
51986;BME280;38002;53.296;6.600;2023-06-22T12:39:34;102001.44;;;26.47;56.35
51986;BME280;38002;53.296;6.600;2023-06-22T12:44:35;101998.66;;;26.17;56.47
51986;BME280;38002;53.296;6.600;2023-06-22T12:49:36;101997.47;;;25.95;57.12
51986;BME280;38002;53.296;6.600;2023-06-22T12:54:36;101993.88;;;25.77;55.27
51986;BME280;38002;53.296;6.600;2023-06-22T12:59:37;101997.25;;;25.67;57.09
51986;BME280;38002;53.296;6.600;2023-06-22T13:04:37;102000.19;;;25.54;55.57
51986;BME280;38002;53.296;6.600;2023-06-22T13:09:38;101995.50;;;25.48;56.99
51986;BME280;38002;53.296;6.600;2023-06-22T13:14:38;101994.88;;;25.09;52.56
51986;BME280;38002;53.296;6.600;2023-06-22T13:19:38;102001.31;;;25.10;57.38
51986;BME280;38002;53.296;6.600;2023-06-22T13:24:39;101989.34;;;24.84;54.95
51986;BME280;38002;53.296;6.600;2023-06-22T13:29:39;101983.56;;;24.86;57.26
51986;BME280;38002;53.296;6.600;2023-06-22T13:34:40;102001.19;;;24.73;55.85
51986;BME280;38002;53.296;6.600;2023-06-22T13:39:40;101993.53;;;24.69;57.38
51986;BME280;38002;53.296;6.600;2023-06-22T13:44:41;101988.44;;;24.66;57.36
51986;BME280;38002;53.296;6.600;2023-06-22T13:49:41;101994.63;;;24.68;57.51
51986;BME280;38002;53.296;6.600;2023-06-22T13:54:41;101981.78;;;24.42;57.09
51986;BME280;38002;53.296;6.600;2023-06-22T13:59:42;101976.94;;;24.37;57.79
51986;BME280;38002;53.296;6.600;2023-06-22T14:04:42;101955.13;;;24.03;58.00
51986;BME280;38002;53.296;6.600;2023-06-22T14:09:43;101971.63;;;23.91;57.71
51986;BME280;38002;53.296;6.600;2023-06-22T14:14:43;101981.41;;;23.63;56.69
51986;BME280;38002;53.296;6.600;2023-06-22T14:19:44;101971.22;;;23.50;58.06
51986;BME280;38002;53.296;6.600;2023-06-22T14:24:45;101965.28;;;23.27;58.13
51986;BME280;38002;53.296;6.600;2023-06-22T14:29:46;101973.00;;;23.25;58.13
51986;BME280;38002;53.296;6.600;2023-06-22T14:34:46;101957.66;;;23.16;58.54
51986;BME280;38002;53.296;6.600;2023-06-22T14:39:47;101957.25;;;23.12;58.53
51986;BME280;38002;53.296;6.600;2023-06-22T14:44:47;101939.34;;;23.08;58.47
51986;BME280;38002;53.296;6.600;2023-06-22T14:49:48;101930.34;;;23.06;58.38
51986;BME280;38002;53.296;6.600;2023-06-22T14:54:49;101908.00;;;22.88;58.33
51986;BME280;38002;53.296;6.600;2023-06-22T14:59:52;101915.06;;;22.84;58.00
51986;BME280;38002;53.296;6.600;2023-06-22T15:04:53;101912.31;;;22.71;58.64
51986;BME280;38002;53.296;6.600;2023-06-22T15:09:54;101914.22;;;22.57;58.34
51986;BME280;38002;53.296;6.600;2023-06-22T15:14:54;101892.03;;;22.63;58.20
51986;BME280;38002;53.296;6.600;2023-06-22T15:19:55;101893.75;;;22.65;58.19
51986;BME280;38002;53.296;6.600;2023-06-22T15:24:55;101884.16;;;22.60;57.80
51986;BME280;38002;53.296;6.600;2023-06-22T15:29:58;101876.28;;;22.51;57.69
51986;BME280;38002;53.296;6.600;2023-06-22T15:34:58;101875.03;;;22.34;57.93
51986;BME280;38002;53.296;6.600;2023-06-22T15:39:59;101872.25;;;22.27;58.01
51986;BME280;38002;53.296;6.600;2023-06-22T15:44:59;101864.59;;;22.29;57.98
51986;BME280;38002;53.296;6.600;2023-06-22T15:50:00;101854.34;;;22.23;58.06
51986;BME280;38002;53.296;6.600;2023-06-22T15:55:00;101857.34;;;22.22;57.89
51986;BME280;38002;53.296;6.600;2023-06-22T16:00:01;101853.50;;;22.16;58.02
51986;BME280;38002;53.296;6.600;2023-06-22T16:05:01;101844.16;;;22.04;58.92
51986;BME280;38002;53.296;6.600;2023-06-22T16:10:04;101821.13;;;21.97;58.70
51986;BME280;38002;53.296;6.600;2023-06-22T16:15:05;101816.00;;;21.87;58.70
51986;BME280;38002;53.296;6.600;2023-06-22T16:20:07;101820.91;;;21.79;59.00
51986;BME280;38002;53.296;6.600;2023-06-22T16:25:08;101798.75;;;21.65;59.06
51986;BME280;38002;53.296;6.600;2023-06-22T16:30:08;101804.06;;;21.60;58.93
51986;BME280;38002;53.296;6.600;2023-06-22T16:35:09;101807.03;;;21.52;59.03
51986;BME280;38002;53.296;6.600;2023-06-22T16:40:09;101811.44;;;21.40;58.81
51986;BME280;38002;53.296;6.600;2023-06-22T16:45:16;101802.09;;;21.35;59.49
51986;BME280;38002;53.296;6.600;2023-06-22T16:50:17;101818.47;;;21.36;59.72
51986;BME280;38002;53.296;6.600;2023-06-22T16:55:21;101822.94;;;21.31;60.24
51986;BME280;38002;53.296;6.600;2023-06-22T17:00:22;101825.47;;;21.25;60.31
51986;BME280;38002;53.296;6.600;2023-06-22T17:05:23;101821.63;;;21.20;60.95
51986;BME280;38002;53.296;6.600;2023-06-22T17:10:23;101820.34;;;21.16;61.14
51986;BME280;38002;53.296;6.600;2023-06-22T17:15:24;101820.94;;;21.11;61.58
51986;BME280;38002;53.296;6.600;2023-06-22T17:20:26;101809.63;;;21.06;62.08
51986;BME280;38002;53.296;6.600;2023-06-22T17:25:28;101806.19;;;20.98;62.56
51986;BME280;38002;53.296;6.600;2023-06-22T17:30:30;101818.31;;;20.90;62.90
51986;BME280;38002;53.296;6.600;2023-06-22T17:35:30;101812.75;;;20.83;63.08
51986;BME280;38002;53.296;6.600;2023-06-22T17:40:31;101810.38;;;20.74;63.67
51986;BME280;38002;53.296;6.600;2023-06-22T17:45:41;101808.66;;;20.66;63.97
51986;BME280;38002;53.296;6.600;2023-06-22T17:50:42;101810.75;;;20.64;63.86
51986;BME280;38002;53.296;6.600;2023-06-22T17:55:42;101823.47;;;20.59;64.38
51986;BME280;38002;53.296;6.600;2023-06-22T18:00:43;101832.38;;;20.54;64.24
51986;BME280;38002;53.296;6.600;2023-06-22T18:05:46;101851.28;;;20.51;64.57
51986;BME280;38002;53.296;6.600;2023-06-22T18:10:47;101863.34;;;20.43;65.09
51986;BME280;38002;53.296;6.600;2023-06-22T18:15:49;101870.50;;;20.31;65.45
51986;BME280;38002;53.296;6.600;2023-06-22T18:20:51;101880.41;;;20.25;65.71
51986;BME280;38002;53.296;6.600;2023-06-22T18:25:52;101900.50;;;20.19;65.98
51986;BME280;38002;53.296;6.600;2023-06-22T18:30:53;101905.59;;;20.16;65.94
51986;BME280;38002;53.296;6.600;2023-06-22T18:35:54;101907.03;;;20.12;66.09
51986;BME280;38002;53.296;6.600;2023-06-22T18:40:56;101910.47;;;20.14;66.23
51986;BME280;38002;53.296;6.600;2023-06-22T18:46:39;101910.47;;;20.14;67.43
51986;BME280;38002;53.296;6.600;2023-06-22T18:52:34;101908.56;;;20.14;67.14
51986;BME280;38002;53.296;6.600;2023-06-22T18:57:25;101891.16;;;20.14;67.01
51986;BME280;38002;53.296;6.600;2023-06-22T19:13:28;101887.81;;;19.97;68.38
51986;BME280;38002;53.296;6.600;2023-06-22T19:18:32;101884.19;;;19.97;67.80
51986;BME280;38002;53.296;6.600;2023-06-22T19:23:35;101875.66;;;19.91;67.81
51986;BME280;38002;53.296;6.600;2023-06-22T19:28:54;101870.06;;;19.85;69.04
51986;BME280;38002;53.296;6.600;2023-06-22T19:34:01;101877.03;;;19.81;69.06
51986;BME280;38002;53.296;6.600;2023-06-22T19:39:04;101876.31;;;19.72;68.66
51986;BME280;38002;53.296;6.600;2023-06-22T19:44:04;101872.81;;;19.64;69.27
51986;BME280;38002;53.296;6.600;2023-06-22T19:49:06;101863.19;;;19.53;71.33
51986;BME280;38002;53.296;6.600;2023-06-22T19:54:09;101861.72;;;19.57;69.51
51986;BME280;38002;53.296;6.600;2023-06-22T19:59:13;101854.22;;;19.51;69.29
51986;BME280;38002;53.296;6.600;2023-06-22T20:04:15;101869.69;;;19.45;69.84
51986;BME280;38002;53.296;6.600;2023-06-22T20:09:15;101868.34;;;19.41;70.18
51986;BME280;38002;53.296;6.600;2023-06-22T20:14:19;101871.28;;;19.40;70.15
51986;BME280;38002;53.296;6.600;2023-06-22T20:19:19;101886.97;;;19.39;70.44
51986;BME280;38002;53.296;6.600;2023-06-22T20:24:21;101876.53;;;19.35;70.67
51986;BME280;38002;53.296;6.600;2023-06-22T20:29:26;101894.09;;;19.34;70.85
51986;BME280;38002;53.296;6.600;2023-06-22T20:34:34;101884.34;;;19.31;70.69
51986;BME280;38002;53.296;6.600;2023-06-22T20:39:35;101886.63;;;19.28;71.01
51986;BME280;38002;53.296;6.600;2023-06-22T20:44:36;101883.19;;;19.26;71.09
51986;BME280;38002;53.296;6.600;2023-06-22T20:49:36;101884.44;;;19.23;71.04
51986;BME280;38002;53.296;6.600;2023-06-22T20:54:37;101884.81;;;19.20;71.12
51986;BME280;38002;53.296;6.600;2023-06-22T20:59:38;101881.88;;;19.22;71.34
51986;BME280;38002;53.296;6.600;2023-06-22T21:04:38;101882.28;;;19.19;71.49
51986;BME280;38002;53.296;6.600;2023-06-22T21:09:41;101886.75;;;19.20;71.51
51986;BME280;38002;53.296;6.600;2023-06-22T21:14:42;101882.47;;;19.17;71.81
51986;BME280;38002;53.296;6.600;2023-06-22T21:19:42;101893.03;;;19.14;72.33
51986;BME280;38002;53.296;6.600;2023-06-22T21:24:42;101886.19;;;19.10;72.52
51986;BME280;38002;53.296;6.600;2023-06-22T21:29:43;101889.97;;;19.09;72.39
51986;BME280;38002;53.296;6.600;2023-06-22T21:34:43;101877.63;;;19.04;72.42
51986;BME280;38002;53.296;6.600;2023-06-22T21:39:44;101877.63;;;19.04;72.88
51986;BME280;38002;53.296;6.600;2023-06-22T21:44:45;101885.25;;;19.02;73.34
51986;BME280;38002;53.296;6.600;2023-06-22T21:49:45;101895.63;;;19.00;73.88
51986;BME280;38002;53.296;6.600;2023-06-22T21:54:46;101897.91;;;18.97;73.65
51986;BME280;38002;53.296;6.600;2023-06-22T21:59:46;101896.19;;;18.96;73.84
51986;BME280;38002;53.296;6.600;2023-06-22T22:04:47;101890.84;;;18.94;74.14
51986;BME280;38002;53.296;6.600;2023-06-22T22:09:47;101886.03;;;18.96;74.13
51986;BME280;38002;53.296;6.600;2023-06-22T22:14:47;101892.78;;;18.94;74.27
51986;BME280;38002;53.296;6.600;2023-06-22T22:19:48;101898.66;;;18.91;75.32
51986;BME280;38002;53.296;6.600;2023-06-22T22:24:48;101897.16;;;18.88;75.31
51986;BME280;38002;53.296;6.600;2023-06-22T22:29:49;101903.88;;;18.86;75.84
51986;BME280;38002;53.296;6.600;2023-06-22T22:34:49;101900.47;;;18.84;75.51
51986;BME280;38002;53.296;6.600;2023-06-22T22:39:50;101901.03;;;18.79;75.85
51986;BME280;38002;53.296;6.600;2023-06-22T22:44:50;101907.41;;;18.80;76.23
51986;BME280;38002;53.296;6.600;2023-06-22T22:49:51;101905.88;;;18.77;76.13
51986;BME280;38002;53.296;6.600;2023-06-22T22:54:51;101900.59;;;18.76;76.28
51986;BME280;38002;53.296;6.600;2023-06-22T22:59:52;101908.00;;;18.75;76.48
51986;BME280;38002;53.296;6.600;2023-06-22T23:04:56;101907.53;;;18.72;76.58
51986;BME280;38002;53.296;6.600;2023-06-22T23:09:57;101913.22;;;18.70;76.63
51986;BME280;38002;53.296;6.600;2023-06-22T23:14:58;101924.22;;;18.70;77.17
51986;BME280;38002;53.296;6.600;2023-06-22T23:19:58;101927.16;;;18.69;77.12
51986;BME280;38002;53.296;6.600;2023-06-22T23:24:58;101937.72;;;18.65;77.51
51986;BME280;38002;53.296;6.600;2023-06-22T23:29:59;101921.56;;;18.62;77.15
51986;BME280;38002;53.296;6.600;2023-06-22T23:34:59;101938.09;;;18.62;77.35
51986;BME280;38002;53.296;6.600;2023-06-22T23:40:01;101932.97;;;18.59;77.66
51986;BME280;38002;53.296;6.600;2023-06-22T23:45:01;101944.00;;;18.59;77.72
51986;BME280;38002;53.296;6.600;2023-06-22T23:50:01;101940.38;;;18.58;77.51
51986;BME280;38002;53.296;6.600;2023-06-22T23:55:02;101950.53;;;18.58;77.47
